sensor_id;sensor_type;location;lat;lon;timestamp;temperature;humidity
5520;DHT22;2782;52.362;10.012;2023-12-14T00:00:23;17.70;64.80
5520;DHT22;2782;52.362;10.012;2023-12-14T00:01:24;17.70;64.70
5520;DHT22;2782;52.362;10.012;2023-12-14T00:02:25;17.70;64.80
5520;DHT22;2782;52.362;10.012;2023-12-14T00:03:26;17.60;64.70
5520;DHT22;2782;52.362;10.012;2023-12-14T00:04:27;17.70;64.70
5520;DHT22;2782;52.362;10.012;2023-12-14T00:05:29;17.60;64.60
5520;DHT22;2782;52.362;10.012;2023-12-14T00:06:29;17.60;64.60
5520;DHT22;2782;52.362;10.012;2023-12-14T00:07:31;17.60;64.60
5520;DHT22;2782;52.362;10.012;2023-12-14T00:08:31;17.60;64.60
5520;DHT22;2782;52.362;10.012;2023-12-14T00:09:32;17.60;64.60
5520;DHT22;2782;52.362;10.012;2023-12-14T00:10:34;17.60;64.60
5520;DHT22;2782;52.362;10.012;2023-12-14T00:11:39;17.60;64.60
5520;DHT22;2782;52.362;10.012;2023-12-14T00:12:40;17.60;64.60
5520;DHT22;2782;52.362;10.012;2023-12-14T00:13:41;17.60;64.60
5520;DHT22;2782;52.362;10.012;2023-12-14T00:14:41;17.60;64.60
5520;DHT22;2782;52.362;10.012;2023-12-14T00:15:43;17.60;64.50
5520;DHT22;2782;52.362;10.012;2023-12-14T00:16:45;17.60;64.50
5520;DHT22;2782;52.362;10.012;2023-12-14T00:17:46;17.60;64.50
5520;DHT22;2782;52.362;10.012;2023-12-14T00:18:47;17.50;64.40
5520;DHT22;2782;52.362;10.012;2023-12-14T00:19:49;17.50;64.40
5520;DHT22;2782;52.362;10.012;2023-12-14T00:20:49;17.60;64.50
5520;DHT22;2782;52.362;10.012;2023-12-14T00:21:51;17.60;64.50
5520;DHT22;2782;52.362;10.012;2023-12-14T00:22:51;17.50;64.40
5520;DHT22;2782;52.362;10.012;2023-12-14T00:23:53;17.50;64.30
5520;DHT22;2782;52.362;10.012;2023-12-14T00:24:54;17.60;64.40
5520;DHT22;2782;52.362;10.012;2023-12-14T00:25:55;17.50;64.30
5520;DHT22;2782;52.362;10.012;2023-12-14T00:26:57;17.50;64.30
5520;DHT22;2782;52.362;10.012;2023-12-14T00:27:58;17.50;64.30
5520;DHT22;2782;52.362;10.012;2023-12-14T00:29:00;17.50;64.30
5520;DHT22;2782;52.362;10.012;2023-12-14T00:30:01;17.50;64.30
5520;DHT22;2782;52.362;10.012;2023-12-14T00:31:02;17.50;64.30
5520;DHT22;2782;52.362;10.012;2023-12-14T00:32:04;17.50;64.30
5520;DHT22;2782;52.362;10.012;2023-12-14T00:33:06;17.50;64.30
5520;DHT22;2782;52.362;10.012;2023-12-14T00:34:06;17.50;64.30
5520;DHT22;2782;52.362;10.012;2023-12-14T00:35:07;17.50;64.30
5520;DHT22;2782;52.362;10.012;2023-12-14T00:36:09;17.50;64.30
5520;DHT22;2782;52.362;10.012;2023-12-14T00:37:10;17.50;64.30
5520;DHT22;2782;52.362;10.012;2023-12-14T00:38:12;17.50;64.20
5520;DHT22;2782;52.362;10.012;2023-12-14T00:39:13;17.50;64.30
5520;DHT22;2782;52.362;10.012;2023-12-14T00:40:14;17.50;64.30
5520;DHT22;2782;52.362;10.012;2023-12-14T00:41:16;17.50;64.30
5520;DHT22;2782;52.362;10.012;2023-12-14T00:42:18;17.40;64.10
5520;DHT22;2782;52.362;10.012;2023-12-14T00:43:18;17.40;64.10
5520;DHT22;2782;52.362;10.012;2023-12-14T00:44:20;17.40;64.20
5520;DHT22;2782;52.362;10.012;2023-12-14T00:45:21;17.40;64.10
5520;DHT22;2782;52.362;10.012;2023-12-14T00:46:21;17.40;64.10
5520;DHT22;2782;52.362;10.012;2023-12-14T00:47:23;17.50;64.30
5520;DHT22;2782;52.362;10.012;2023-12-14T00:48:23;17.50;64.30
5520;DHT22;2782;52.362;10.012;2023-12-14T00:49:25;17.40;64.20
5520;DHT22;2782;52.362;10.012;2023-12-14T00:50:28;17.50;64.30
5520;DHT22;2782;52.362;10.012;2023-12-14T00:51:30;17.40;64.10
5520;DHT22;2782;52.362;10.012;2023-12-14T00:52:30;17.40;64.10
5520;DHT22;2782;52.362;10.012;2023-12-14T00:53:32;17.40;64.20
5520;DHT22;2782;52.362;10.012;2023-12-14T00:54:33;17.40;64.10
5520;DHT22;2782;52.362;10.012;2023-12-14T00:55:34;17.40;64.10
5520;DHT22;2782;52.362;10.012;2023-12-14T00:56:35;17.40;64.10
5520;DHT22;2782;52.362;10.012;2023-12-14T00:57:38;17.40;64.10
5520;DHT22;2782;52.362;10.012;2023-12-14T00:58:38;17.40;64.10
5520;DHT22;2782;52.362;10.012;2023-12-14T00:59:39;17.40;64.10
5520;DHT22;2782;52.362;10.012;2023-12-14T01:00:41;17.40;64.10
5520;DHT22;2782;52.362;10.012;2023-12-14T01:01:42;17.40;64.10
5520;DHT22;2782;52.362;10.012;2023-12-14T01:02:44;17.40;64.10
5520;DHT22;2782;52.362;10.012;2023-12-14T01:03:44;17.40;64.10
5520;DHT22;2782;52.362;10.012;2023-12-14T01:04:46;17.40;64.10
5520;DHT22;2782;52.362;10.012;2023-12-14T01:05:47;17.40;64.10
5520;DHT22;2782;52.362;10.012;2023-12-14T01:06:48;17.40;64.10
5520;DHT22;2782;52.362;10.012;2023-12-14T01:07:49;17.40;64.10
5520;DHT22;2782;52.362;10.012;2023-12-14T01:08:50;17.40;64.00
5520;DHT22;2782;52.362;10.012;2023-12-14T01:09:51;17.30;63.90
5520;DHT22;2782;52.362;10.012;2023-12-14T01:10:53;17.40;64.00
5520;DHT22;2782;52.362;10.012;2023-12-14T01:11:53;17.40;64.00
5520;DHT22;2782;52.362;10.012;2023-12-14T01:12:56;17.30;63.90
5520;DHT22;2782;52.362;10.012;2023-12-14T01:13:57;17.40;64.00
5520;DHT22;2782;52.362;10.012;2023-12-14T01:14:57;17.40;64.00
5520;DHT22;2782;52.362;10.012;2023-12-14T01:15:59;17.30;63.90
5520;DHT22;2782;52.362;10.012;2023-12-14T01:16:59;17.30;63.90
5520;DHT22;2782;52.362;10.012;2023-12-14T01:18:01;17.40;64.00
5520;DHT22;2782;52.362;10.012;2023-12-14T01:19:02;17.30;63.90
5520;DHT22;2782;52.362;10.012;2023-12-14T01:20:06;17.30;63.90
5520;DHT22;2782;52.362;10.012;2023-12-14T01:21:07;17.30;63.90
5520;DHT22;2782;52.362;10.012;2023-12-14T01:22:09;17.30;63.90
5520;DHT22;2782;52.362;10.012;2023-12-14T01:23:09;17.30;63.90
5520;DHT22;2782;52.362;10.012;2023-12-14T01:24:10;17.30;64.60
5520;DHT22;2782;52.362;10.012;2023-12-14T01:25:12;17.30;63.90
5520;DHT22;2782;52.362;10.012;2023-12-14T01:26:13;17.30;63.80
5520;DHT22;2782;52.362;10.012;2023-12-14T01:27:13;17.30;63.80
5520;DHT22;2782;52.362;10.012;2023-12-14T01:28:16;17.30;63.90
5520;DHT22;2782;52.362;10.012;2023-12-14T01:29:17;17.30;63.80
5520;DHT22;2782;52.362;10.012;2023-12-14T01:30:18;17.30;63.80
5520;DHT22;2782;52.362;10.012;2023-12-14T01:31:19;17.30;63.80
5520;DHT22;2782;52.362;10.012;2023-12-14T01:32:23;17.30;63.80
5520;DHT22;2782;52.362;10.012;2023-12-14T01:33:24;17.30;63.80
5520;DHT22;2782;52.362;10.012;2023-12-14T01:34:25;17.30;63.80
5520;DHT22;2782;52.362;10.012;2023-12-14T01:35:27;17.30;63.80
5520;DHT22;2782;52.362;10.012;2023-12-14T01:36:30;17.30;63.80
5520;DHT22;2782;52.362;10.012;2023-12-14T01:37:30;17.30;63.80
5520;DHT22;2782;52.362;10.012;2023-12-14T01:38:32;17.30;63.80
5520;DHT22;2782;52.362;10.012;2023-12-14T01:39:33;17.30;63.80
5520;DHT22;2782;52.362;10.012;2023-12-14T01:40:34;17.30;63.80
5520;DHT22;2782;52.362;10.012;2023-12-14T01:41:35;17.30;63.80
5520;DHT22;2782;52.362;10.012;2023-12-14T01:42:37;17.30;63.80
5520;DHT22;2782;52.362;10.012;2023-12-14T01:43:39;17.20;63.70
5520;DHT22;2782;52.362;10.012;2023-12-14T01:44:40;17.30;63.80
5520;DHT22;2782;52.362;10.012;2023-12-14T01:45:41;17.30;63.80
5520;DHT22;2782;52.362;10.012;2023-12-14T01:46:42;17.20;63.70
5520;DHT22;2782;52.362;10.012;2023-12-14T01:47:43;17.30;63.80
5520;DHT22;2782;52.362;10.012;2023-12-14T01:48:44;17.20;63.70
5520;DHT22;2782;52.362;10.012;2023-12-14T01:49:46;17.20;63.70
5520;DHT22;2782;52.362;10.012;2023-12-14T01:50:46;17.30;63.80
5520;DHT22;2782;52.362;10.012;2023-12-14T01:51:48;17.20;63.70
5520;DHT22;2782;52.362;10.012;2023-12-14T01:52:48;17.20;63.60
5520;DHT22;2782;52.362;10.012;2023-12-14T01:53:50;17.20;63.70
5520;DHT22;2782;52.362;10.012;2023-12-14T01:54:50;17.20;63.60
5520;DHT22;2782;52.362;10.012;2023-12-14T01:55:51;17.20;63.60
5520;DHT22;2782;52.362;10.012;2023-12-14T01:56:53;17.20;63.60
5520;DHT22;2782;52.362;10.012;2023-12-14T01:57:54;17.20;63.60
5520;DHT22;2782;52.362;10.012;2023-12-14T01:58:57;17.20;63.60
5520;DHT22;2782;52.362;10.012;2023-12-14T01:59:58;17.20;63.60
5520;DHT22;2782;52.362;10.012;2023-12-14T02:01:05;17.20;63.60
5520;DHT22;2782;52.362;10.012;2023-12-14T02:02:08;17.20;63.60
5520;DHT22;2782;52.362;10.012;2023-12-14T02:03:08;17.20;63.60
5520;DHT22;2782;52.362;10.012;2023-12-14T02:04:10;17.20;63.70
5520;DHT22;2782;52.362;10.012;2023-12-14T02:05:11;17.20;63.70
5520;DHT22;2782;52.362;10.012;2023-12-14T02:06:11;17.20;63.70
5520;DHT22;2782;52.362;10.012;2023-12-14T02:07:13;17.20;63.70
5520;DHT22;2782;52.362;10.012;2023-12-14T02:08:14;17.20;63.70
5520;DHT22;2782;52.362;10.012;2023-12-14T02:09:15;17.20;64.40
5520;DHT22;2782;52.362;10.012;2023-12-14T02:10:16;17.20;63.70
5520;DHT22;2782;52.362;10.012;2023-12-14T02:11:17;17.20;63.70
5520;DHT22;2782;52.362;10.012;2023-12-14T02:12:18;17.20;63.60
5520;DHT22;2782;52.362;10.012;2023-12-14T02:13:20;17.20;63.60
5520;DHT22;2782;52.362;10.012;2023-12-14T02:14:22;17.20;63.60
5520;DHT22;2782;52.362;10.012;2023-12-14T02:15:24;17.20;63.60
5520;DHT22;2782;52.362;10.012;2023-12-14T02:16:25;17.20;63.60
5520;DHT22;2782;52.362;10.012;2023-12-14T02:17:26;17.20;63.60
5520;DHT22;2782;52.362;10.012;2023-12-14T02:18:27;17.10;63.50
5520;DHT22;2782;52.362;10.012;2023-12-14T02:19:28;17.20;63.70
5520;DHT22;2782;52.362;10.012;2023-12-14T02:20:29;17.20;63.70
5520;DHT22;2782;52.362;10.012;2023-12-14T02:21:30;17.20;63.60
5520;DHT22;2782;52.362;10.012;2023-12-14T02:22:36;17.20;63.60
5520;DHT22;2782;52.362;10.012;2023-12-14T02:23:43;17.20;63.60
5520;DHT22;2782;52.362;10.012;2023-12-14T02:24:43;17.10;63.50
5520;DHT22;2782;52.362;10.012;2023-12-14T02:25:45;17.20;63.60
5520;DHT22;2782;52.362;10.012;2023-12-14T02:26:45;17.20;63.60
5520;DHT22;2782;52.362;10.012;2023-12-14T02:27:48;17.10;63.50
5520;DHT22;2782;52.362;10.012;2023-12-14T02:28:49;17.10;63.50
5520;DHT22;2782;52.362;10.012;2023-12-14T02:29:51;17.10;63.50
5520;DHT22;2782;52.362;10.012;2023-12-14T02:30:51;17.10;63.50
5520;DHT22;2782;52.362;10.012;2023-12-14T02:31:53;17.10;63.50
5520;DHT22;2782;52.362;10.012;2023-12-14T02:32:54;17.10;63.40
5520;DHT22;2782;52.362;10.012;2023-12-14T02:33:54;17.10;63.50
5520;DHT22;2782;52.362;10.012;2023-12-14T02:34:56;17.10;63.50
5520;DHT22;2782;52.362;10.012;2023-12-14T02:35:57;17.10;63.40
5520;DHT22;2782;52.362;10.012;2023-12-14T02:36:58;17.10;63.50
5520;DHT22;2782;52.362;10.012;2023-12-14T02:38:00;17.10;63.50
5520;DHT22;2782;52.362;10.012;2023-12-14T02:39:02;17.10;63.40
5520;DHT22;2782;52.362;10.012;2023-12-14T02:40:03;17.10;63.40
5520;DHT22;2782;52.362;10.012;2023-12-14T02:41:05;17.10;63.40
5520;DHT22;2782;52.362;10.012;2023-12-14T02:42:06;17.10;63.40
5520;DHT22;2782;52.362;10.012;2023-12-14T02:43:07;17.10;63.40
5520;DHT22;2782;52.362;10.012;2023-12-14T02:44:08;17.10;63.40
5520;DHT22;2782;52.362;10.012;2023-12-14T02:45:10;17.10;63.40
5520;DHT22;2782;52.362;10.012;2023-12-14T02:46:10;17.10;63.30
5520;DHT22;2782;52.362;10.012;2023-12-14T02:47:13;17.10;63.30
5520;DHT22;2782;52.362;10.012;2023-12-14T02:48:15;17.10;63.30
5520;DHT22;2782;52.362;10.012;2023-12-14T02:49:16;17.10;63.30
5520;DHT22;2782;52.362;10.012;2023-12-14T02:50:17;17.10;63.30
5520;DHT22;2782;52.362;10.012;2023-12-14T02:51:18;17.10;63.30
5520;DHT22;2782;52.362;10.012;2023-12-14T02:52:19;17.10;63.30
5520;DHT22;2782;52.362;10.012;2023-12-14T02:53:21;17.10;63.40
5520;DHT22;2782;52.362;10.012;2023-12-14T02:54:23;17.10;63.40
5520;DHT22;2782;52.362;10.012;2023-12-14T02:55:24;17.10;63.40
5520;DHT22;2782;52.362;10.012;2023-12-14T02:56:25;17.10;63.40
5520;DHT22;2782;52.362;10.012;2023-12-14T02:57:26;17.00;63.20
5520;DHT22;2782;52.362;10.012;2023-12-14T02:58:27;17.00;63.20
5520;DHT22;2782;52.362;10.012;2023-12-14T02:59:28;17.10;63.30
5520;DHT22;2782;52.362;10.012;2023-12-14T03:00:30;17.00;63.30
5520;DHT22;2782;52.362;10.012;2023-12-14T03:04:25;17.00;63.20
5520;DHT22;2782;52.362;10.012;2023-12-14T03:05:27;17.00;63.20
5520;DHT22;2782;52.362;10.012;2023-12-14T03:06:27;17.00;63.20
5520;DHT22;2782;52.362;10.012;2023-12-14T03:07:29;17.00;63.30
5520;DHT22;2782;52.362;10.012;2023-12-14T03:08:31;17.00;63.30
5520;DHT22;2782;52.362;10.012;2023-12-14T03:09:33;17.00;63.30
5520;DHT22;2782;52.362;10.012;2023-12-14T03:10:34;17.00;63.30
5520;DHT22;2782;52.362;10.012;2023-12-14T03:11:36;17.00;63.30
5520;DHT22;2782;52.362;10.012;2023-12-14T03:12:36;17.00;63.20
5520;DHT22;2782;52.362;10.012;2023-12-14T03:13:38;17.00;63.20
5520;DHT22;2782;52.362;10.012;2023-12-14T03:14:39;17.00;63.20
5520;DHT22;2782;52.362;10.012;2023-12-14T03:15:43;17.00;63.20
5520;DHT22;2782;52.362;10.012;2023-12-14T03:16:43;17.00;63.20
5520;DHT22;2782;52.362;10.012;2023-12-14T03:17:45;17.00;63.20
5520;DHT22;2782;52.362;10.012;2023-12-14T03:18:46;17.00;63.20
5520;DHT22;2782;52.362;10.012;2023-12-14T03:19:49;17.00;63.20
5520;DHT22;2782;52.362;10.012;2023-12-14T03:20:50;17.00;63.20
5520;DHT22;2782;52.362;10.012;2023-12-14T03:21:52;17.00;63.20
5520;DHT22;2782;52.362;10.012;2023-12-14T03:22:53;17.00;63.20
5520;DHT22;2782;52.362;10.012;2023-12-14T03:23:56;17.00;63.20
5520;DHT22;2782;52.362;10.012;2023-12-14T03:24:57;17.00;63.20
5520;DHT22;2782;52.362;10.012;2023-12-14T03:25:58;17.00;63.30
5520;DHT22;2782;52.362;10.012;2023-12-14T03:26:59;17.00;63.20
5520;DHT22;2782;52.362;10.012;2023-12-14T03:28:01;17.00;63.20
5520;DHT22;2782;52.362;10.012;2023-12-14T03:29:01;17.00;63.20
5520;DHT22;2782;52.362;10.012;2023-12-14T03:30:04;17.00;63.30
5520;DHT22;2782;52.362;10.012;2023-12-14T03:31:10;17.00;63.20
5520;DHT22;2782;52.362;10.012;2023-12-14T03:32:12;17.00;63.20
5520;DHT22;2782;52.362;10.012;2023-12-14T03:33:13;16.90;63.10
5520;DHT22;2782;52.362;10.012;2023-12-14T03:34:14;16.90;63.00
5520;DHT22;2782;52.362;10.012;2023-12-14T03:35:15;17.00;63.20
5520;DHT22;2782;52.362;10.012;2023-12-14T03:36:16;17.00;63.20
5520;DHT22;2782;52.362;10.012;2023-12-14T03:37:17;17.00;63.20
5520;DHT22;2782;52.362;10.012;2023-12-14T03:38:19;16.90;63.00
5520;DHT22;2782;52.362;10.012;2023-12-14T03:39:21;16.90;63.10
5520;DHT22;2782;52.362;10.012;2023-12-14T03:40:21;16.90;63.10
5520;DHT22;2782;52.362;10.012;2023-12-14T03:41:23;16.90;63.00
5520;DHT22;2782;52.362;10.012;2023-12-14T03:42:24;17.00;63.20
5520;DHT22;2782;52.362;10.012;2023-12-14T03:43:24;16.90;63.00
5520;DHT22;2782;52.362;10.012;2023-12-14T03:44:26;16.90;63.00
5520;DHT22;2782;52.362;10.012;2023-12-14T03:45:27;16.90;63.00
5520;DHT22;2782;52.362;10.012;2023-12-14T03:46:29;16.90;63.00
5520;DHT22;2782;52.362;10.012;2023-12-14T03:47:30;16.90;63.00
5520;DHT22;2782;52.362;10.012;2023-12-14T03:48:31;16.90;63.00
5520;DHT22;2782;52.362;10.012;2023-12-14T03:49:36;16.90;63.00
5520;DHT22;2782;52.362;10.012;2023-12-14T03:50:38;16.90;63.00
5520;DHT22;2782;52.362;10.012;2023-12-14T03:51:39;16.90;63.00
5520;DHT22;2782;52.362;10.012;2023-12-14T03:52:41;16.90;63.00
5520;DHT22;2782;52.362;10.012;2023-12-14T03:53:42;16.90;63.00
5520;DHT22;2782;52.362;10.012;2023-12-14T03:54:45;16.90;63.00
5520;DHT22;2782;52.362;10.012;2023-12-14T03:55:46;16.90;62.90
5520;DHT22;2782;52.362;10.012;2023-12-14T03:56:46;16.90;62.90
5520;DHT22;2782;52.362;10.012;2023-12-14T03:57:48;16.90;62.90
5520;DHT22;2782;52.362;10.012;2023-12-14T03:58:48;16.90;63.00
5520;DHT22;2782;52.362;10.012;2023-12-14T03:59:50;16.90;62.90
5520;DHT22;2782;52.362;10.012;2023-12-14T04:00:51;16.90;62.90
5520;DHT22;2782;52.362;10.012;2023-12-14T04:01:52;16.90;63.00
5520;DHT22;2782;52.362;10.012;2023-12-14T04:02:53;16.90;63.00
5520;DHT22;2782;52.362;10.012;2023-12-14T04:03:54;16.90;63.00
5520;DHT22;2782;52.362;10.012;2023-12-14T04:04:55;16.90;62.90
5520;DHT22;2782;52.362;10.012;2023-12-14T04:05:56;16.90;62.90
5520;DHT22;2782;52.362;10.012;2023-12-14T04:06:57;16.90;62.90
5520;DHT22;2782;52.362;10.012;2023-12-14T04:07:58;16.90;62.90
5520;DHT22;2782;52.362;10.012;2023-12-14T04:08:59;16.90;62.90
5520;DHT22;2782;52.362;10.012;2023-12-14T04:10:01;16.90;62.90
5520;DHT22;2782;52.362;10.012;2023-12-14T04:11:03;16.90;62.90
5520;DHT22;2782;52.362;10.012;2023-12-14T04:12:04;16.90;62.90
5520;DHT22;2782;52.362;10.012;2023-12-14T04:13:06;16.90;62.90
5520;DHT22;2782;52.362;10.012;2023-12-14T04:14:07;16.80;62.80
5520;DHT22;2782;52.362;10.012;2023-12-14T04:15:10;16.80;62.70
5520;DHT22;2782;52.362;10.012;2023-12-14T04:16:11;16.90;62.80
5520;DHT22;2782;52.362;10.012;2023-12-14T04:17:12;16.90;62.80
5520;DHT22;2782;52.362;10.012;2023-12-14T04:18:13;16.90;62.80
5520;DHT22;2782;52.362;10.012;2023-12-14T04:19:14;16.90;62.80
5520;DHT22;2782;52.362;10.012;2023-12-14T04:20:15;16.80;62.70
5520;DHT22;2782;52.362;10.012;2023-12-14T04:21:17;16.90;62.80
5520;DHT22;2782;52.362;10.012;2023-12-14T04:22:17;16.90;62.80
5520;DHT22;2782;52.362;10.012;2023-12-14T04:23:19;16.90;62.80
5520;DHT22;2782;52.362;10.012;2023-12-14T04:24:19;16.90;62.80
5520;DHT22;2782;52.362;10.012;2023-12-14T04:25:23;16.90;62.80
5520;DHT22;2782;52.362;10.012;2023-12-14T04:26:24;16.90;62.80
5520;DHT22;2782;52.362;10.012;2023-12-14T04:27:25;16.80;62.70
5520;DHT22;2782;52.362;10.012;2023-12-14T04:28:29;16.90;62.80
5520;DHT22;2782;52.362;10.012;2023-12-14T04:29:30;16.80;62.70
5520;DHT22;2782;52.362;10.012;2023-12-14T04:30:31;16.80;62.70
5520;DHT22;2782;52.362;10.012;2023-12-14T04:31:34;16.80;62.70
5520;DHT22;2782;52.362;10.012;2023-12-14T04:32:34;16.90;62.80
5520;DHT22;2782;52.362;10.012;2023-12-14T04:33:35;16.80;62.70
5520;DHT22;2782;52.362;10.012;2023-12-14T04:34:36;16.80;62.70
5520;DHT22;2782;52.362;10.012;2023-12-14T04:35:37;16.80;62.70
5520;DHT22;2782;52.362;10.012;2023-12-14T04:36:38;16.80;62.70
5520;DHT22;2782;52.362;10.012;2023-12-14T04:37:39;16.80;62.70
5520;DHT22;2782;52.362;10.012;2023-12-14T04:38:40;16.80;62.70
5520;DHT22;2782;52.362;10.012;2023-12-14T04:39:40;16.80;62.70
5520;DHT22;2782;52.362;10.012;2023-12-14T04:40:43;16.80;62.70
5520;DHT22;2782;52.362;10.012;2023-12-14T04:41:44;16.80;62.70
5520;DHT22;2782;52.362;10.012;2023-12-14T04:42:44;16.80;62.70
5520;DHT22;2782;52.362;10.012;2023-12-14T04:43:46;16.80;62.70
5520;DHT22;2782;52.362;10.012;2023-12-14T04:44:47;16.80;62.70
5520;DHT22;2782;52.362;10.012;2023-12-14T04:45:48;16.80;62.70
5520;DHT22;2782;52.362;10.012;2023-12-14T04:46:49;16.80;62.70
5520;DHT22;2782;52.362;10.012;2023-12-14T04:47:50;16.80;62.70
5520;DHT22;2782;52.362;10.012;2023-12-14T04:48:51;16.80;62.60
5520;DHT22;2782;52.362;10.012;2023-12-14T04:49:53;16.80;62.60
5520;DHT22;2782;52.362;10.012;2023-12-14T04:50:53;16.80;62.60
5520;DHT22;2782;52.362;10.012;2023-12-14T04:51:55;16.80;62.60
5520;DHT22;2782;52.362;10.012;2023-12-14T04:52:55;16.80;62.60
5520;DHT22;2782;52.362;10.012;2023-12-14T04:53:57;16.80;62.70
5520;DHT22;2782;52.362;10.012;2023-12-14T04:54:58;16.80;62.70
5520;DHT22;2782;52.362;10.012;2023-12-14T04:56:00;16.80;62.70
5520;DHT22;2782;52.362;10.012;2023-12-14T04:57:01;16.80;62.70
5520;DHT22;2782;52.362;10.012;2023-12-14T04:58:03;16.80;62.70
5520;DHT22;2782;52.362;10.012;2023-12-14T04:59:03;16.80;62.70
5520;DHT22;2782;52.362;10.012;2023-12-14T05:00:06;16.80;62.80
5520;DHT22;2782;52.362;10.012;2023-12-14T05:01:08;16.80;62.80
5520;DHT22;2782;52.362;10.012;2023-12-14T05:02:09;16.80;62.90
5520;DHT22;2782;52.362;10.012;2023-12-14T05:03:10;16.80;62.90
5520;DHT22;2782;52.362;10.012;2023-12-14T05:04:12;16.80;63.00
5520;DHT22;2782;52.362;10.012;2023-12-14T05:05:13;16.80;63.00
5520;DHT22;2782;52.362;10.012;2023-12-14T05:06:15;16.80;63.00
5520;DHT22;2782;52.362;10.012;2023-12-14T05:07:16;16.90;63.20
5520;DHT22;2782;52.362;10.012;2023-12-14T05:08:17;16.90;63.30
5520;DHT22;2782;52.362;10.012;2023-12-14T05:09:18;16.90;63.30
5520;DHT22;2782;52.362;10.012;2023-12-14T05:10:19;16.80;63.20
5520;DHT22;2782;52.362;10.012;2023-12-14T05:11:23;16.80;63.30
5520;DHT22;2782;52.362;10.012;2023-12-14T05:12:24;16.90;63.40
5520;DHT22;2782;52.362;10.012;2023-12-14T05:13:27;16.90;63.50
5520;DHT22;2782;52.362;10.012;2023-12-14T05:14:28;16.90;63.50
5520;DHT22;2782;52.362;10.012;2023-12-14T05:15:29;16.90;63.50
5520;DHT22;2782;52.362;10.012;2023-12-14T05:16:31;16.90;63.60
5520;DHT22;2782;52.362;10.012;2023-12-14T05:17:32;17.00;63.70
5520;DHT22;2782;52.362;10.012;2023-12-14T05:18:34;17.00;63.80
5520;DHT22;2782;52.362;10.012;2023-12-14T05:19:35;17.00;63.80
5520;DHT22;2782;52.362;10.012;2023-12-14T05:20:36;17.00;63.80
5520;DHT22;2782;52.362;10.012;2023-12-14T05:21:37;17.00;63.90
5520;DHT22;2782;52.362;10.012;2023-12-14T05:22:38;17.00;63.80
5520;DHT22;2782;52.362;10.012;2023-12-14T05:23:39;17.10;63.90
5520;DHT22;2782;52.362;10.012;2023-12-14T05:24:40;17.10;63.90
5520;DHT22;2782;52.362;10.012;2023-12-14T05:25:41;17.10;63.90
5520;DHT22;2782;52.362;10.012;2023-12-14T05:26:44;17.20;64.00
5520;DHT22;2782;52.362;10.012;2023-12-14T05:27:44;17.20;64.00
5520;DHT22;2782;52.362;10.012;2023-12-14T05:28:46;17.20;64.00
5520;DHT22;2782;52.362;10.012;2023-12-14T05:29:47;17.20;64.00
5520;DHT22;2782;52.362;10.012;2023-12-14T05:30:47;17.20;64.00
5520;DHT22;2782;52.362;10.012;2023-12-14T05:31:49;17.20;64.00
5520;DHT22;2782;52.362;10.012;2023-12-14T05:32:50;17.30;64.10
5520;DHT22;2782;52.362;10.012;2023-12-14T05:33:52;17.30;64.10
5520;DHT22;2782;52.362;10.012;2023-12-14T05:34:52;17.30;64.10
5520;DHT22;2782;52.362;10.012;2023-12-14T05:35:56;17.30;64.00
5520;DHT22;2782;52.362;10.012;2023-12-14T05:36:56;17.30;64.00
5520;DHT22;2782;52.362;10.012;2023-12-14T05:37:58;17.40;64.10
5520;DHT22;2782;52.362;10.012;2023-12-14T05:38:59;17.40;64.10
5520;DHT22;2782;52.362;10.012;2023-12-14T05:40:00;17.40;64.00
5520;DHT22;2782;52.362;10.012;2023-12-14T05:41:01;17.40;64.00
5520;DHT22;2782;52.362;10.012;2023-12-14T05:42:05;17.40;64.00
5520;DHT22;2782;52.362;10.012;2023-12-14T05:43:05;17.40;64.00
5520;DHT22;2782;52.362;10.012;2023-12-14T05:44:07;17.40;63.90
5520;DHT22;2782;52.362;10.012;2023-12-14T05:45:08;17.50;64.00
5520;DHT22;2782;52.362;10.012;2023-12-14T05:46:09;17.50;64.10
5520;DHT22;2782;52.362;10.012;2023-12-14T05:47:11;17.50;64.00
5520;DHT22;2782;52.362;10.012;2023-12-14T05:48:11;17.50;64.00
5520;DHT22;2782;52.362;10.012;2023-12-14T05:49:12;17.50;64.00
5520;DHT22;2782;52.362;10.012;2023-12-14T05:50:13;17.60;64.00
5520;DHT22;2782;52.362;10.012;2023-12-14T05:51:26;17.60;64.70
5520;DHT22;2782;52.362;10.012;2023-12-14T05:52:27;17.60;63.90
5520;DHT22;2782;52.362;10.012;2023-12-14T05:53:28;17.60;63.90
5520;DHT22;2782;52.362;10.012;2023-12-14T05:54:29;17.60;63.90
5520;DHT22;2782;52.362;10.012;2023-12-14T05:55:30;17.60;63.90
5520;DHT22;2782;52.362;10.012;2023-12-14T05:56:32;17.60;63.90
5520;DHT22;2782;52.362;10.012;2023-12-14T05:57:34;17.70;63.90
5520;DHT22;2782;52.362;10.012;2023-12-14T05:58:35;17.70;63.90
5520;DHT22;2782;52.362;10.012;2023-12-14T05:59:36;17.70;63.80
5520;DHT22;2782;52.362;10.012;2023-12-14T06:00:37;17.70;63.80
5520;DHT22;2782;52.362;10.012;2023-12-14T06:01:40;17.70;63.80
5520;DHT22;2782;52.362;10.012;2023-12-14T06:02:40;17.70;63.80
5520;DHT22;2782;52.362;10.012;2023-12-14T06:03:42;17.70;63.70
5520;DHT22;2782;52.362;10.012;2023-12-14T06:04:42;17.70;63.70
5520;DHT22;2782;52.362;10.012;2023-12-14T06:05:44;17.70;63.70
5520;DHT22;2782;52.362;10.012;2023-12-14T06:06:45;17.70;63.70
5520;DHT22;2782;52.362;10.012;2023-12-14T06:07:46;17.70;63.60
5520;DHT22;2782;52.362;10.012;2023-12-14T06:08:47;17.70;63.60
5520;DHT22;2782;52.362;10.012;2023-12-14T06:09:49;17.70;63.60
5520;DHT22;2782;52.362;10.012;2023-12-14T06:10:50;17.70;63.60
5520;DHT22;2782;52.362;10.012;2023-12-14T06:11:52;17.70;63.50
5520;DHT22;2782;52.362;10.012;2023-12-14T06:12:54;17.80;63.70
5520;DHT22;2782;52.362;10.012;2023-12-14T06:13:55;17.80;63.70
5520;DHT22;2782;52.362;10.012;2023-12-14T06:14:56;17.80;63.70
5520;DHT22;2782;52.362;10.012;2023-12-14T06:15:57;17.80;63.70
5520;DHT22;2782;52.362;10.012;2023-12-14T06:16:58;17.80;63.70
5520;DHT22;2782;52.362;10.012;2023-12-14T06:18:00;17.80;63.70
5520;DHT22;2782;52.362;10.012;2023-12-14T06:19:00;17.80;63.70
5520;DHT22;2782;52.362;10.012;2023-12-14T06:20:02;17.80;63.70
5520;DHT22;2782;52.362;10.012;2023-12-14T06:21:04;17.80;63.70
5520;DHT22;2782;52.362;10.012;2023-12-14T06:22:05;17.80;63.70
5520;DHT22;2782;52.362;10.012;2023-12-14T06:23:06;17.80;63.70
5520;DHT22;2782;52.362;10.012;2023-12-14T06:24:07;17.80;63.70
5520;DHT22;2782;52.362;10.012;2023-12-14T06:25:08;17.80;63.70
5520;DHT22;2782;52.362;10.012;2023-12-14T06:26:10;17.80;63.70
5520;DHT22;2782;52.362;10.012;2023-12-14T06:27:10;17.80;63.70
5520;DHT22;2782;52.362;10.012;2023-12-14T06:28:13;17.80;63.70
5520;DHT22;2782;52.362;10.012;2023-12-14T06:29:15;17.80;63.70
5520;DHT22;2782;52.362;10.012;2023-12-14T06:30:17;17.80;63.70
5520;DHT22;2782;52.362;10.012;2023-12-14T06:31:18;17.80;63.70
5520;DHT22;2782;52.362;10.012;2023-12-14T06:32:21;17.80;63.70
5520;DHT22;2782;52.362;10.012;2023-12-14T06:33:22;17.80;63.70
5520;DHT22;2782;52.362;10.012;2023-12-14T06:34:24;17.80;63.70
5520;DHT22;2782;52.362;10.012;2023-12-14T06:35:24;17.80;63.60
5520;DHT22;2782;52.362;10.012;2023-12-14T06:36:26;17.80;63.50